Pagrindinis puslapis
METAR-TAF:

METAR-TAF

Oro uostai :

Port Morsbis, Papua Naujoji Gvinėja

platuma: 09-26S, ilguma: 147-13E, Aukštis: 38 m

Dabartinis oras

Ataskaita buvo paskelbta 43 minutes, ne 19:00 UTC
Vėjas 5 kt iš Šiaurės/Šiaurės Vakarų
Temperatūra 25°C
Drėgmė 94%
Slėgis 1008 hPa
Matomumas 10 km arba daugiau
Mažai debesys ne aukštis 5000 ft
Išsisklaidę debesys ne aukštis 8000 ft

METAR: AYPY 201900Z 34005KT 9999 FEW050 SCT080 25/24 Q1008

Laikas: 05:43 (19:43 UTC)

Prognozė

Ataskaita buvo paskelbta 3 valandos ir 42 minutes, ne 16:01 UTC
Prognozė galioja nuo 20 metu 18 UTC su 21 metu 18 UTC
Vėjas 3 kt nuo kintamojo kryptimis
Matomumas 10 km arba daugiau
Išsisklaidę debesys ne aukštis 4000 ft
Nuo 21 metu 0001 UTC
Vėjas 10 kt iš Vakarų/Šiaurės Vakarų
Matomumas: 1009 m
Išsisklaidę debesys ne aukštis 2000 ft
Išsisklaidę debesys ne aukštis 5000 ft

TAF: AYPY 201601Z 2018/2118 VRB03KT 9999 SCT040 FM210001 30010KT 9999 SCT020 SCT050 T 25 27 30 33 Q 1007 1008 1010 1009

Orai ataskaitas ir orų prognozės (METAR, TAF).

turimą stotys yra geltonos ir raudonos taškus žemėlapyje.

Perkelti pele per norėdami pamatyti stoties vardą.

Tada spustelėkite, norėdami matyti oro stebėjimo ir prognozės.

Norėdami pakeisti žemėlapį: spustelėkite ant žalios mygtukų su juodo kryžiaus žemyn,; žalią mygtuką su brūkšneliu, jei norite nutolinti; arba žalių rodyklių gretimoms žemėlapius.


METAR-TAF: